Aleknagik, AK

12:21 AM AKDT on August 30, 2014 (GMT -0800)
King Salmon | Change Station
CLOSE
Current Station
Airport
Location: King Salmon,
Elevation: 46 ft
Nearby Weather Stations

Elev 46 ft 58.68 °N, 156.66 °W | Updated 27 minutes ago

Scattered Clouds
Scattered Clouds
46 °F
Feels Like 46 °F
N
0
Wind Variable Wind from North

Today
High -- | Low -- °F
--% Chance of Precip.
Yesterday
High -- | Low -- °F
Precip. -- in
7:27 AM 9:41 PM
Waxing Crescent, 20% visible
Pressure 29.67 in
Visibility 10.0 miles
Clouds Few 6000 ft
Scattered Clouds 20000 ft
Dew Point 43 °F
Humidity 89%
Rainfall 0.01 in
Snow Depth Not available.
UV 0 out of 12
Pollen Not available.
Air Quality Not available.
Flu Activity Not available.
METAR PAKN 300754Z 00000KT 10SM FEW060 SCT200 08/06 A2967 RMK AO2 SLP047 T00780061

More Conditions Fewer Conditions

Pressure 29.67 in
Visibility 10.0 miles
Clouds Few 6000 ft
Scattered Clouds 20000 ft
Dew Point 43 °F
Humidity 89%
Rainfall 0.01 in
Snow Depth Not available.
UV 0 out of 12
Pollen Not available.
Air Quality Not available.
Flu Activity Not available.
METAR PAKN 300754Z 00000KT 10SM FEW060 SCT200 08/06 A2967 RMK AO2 SLP047 T00780061

More Conditions Fewer Conditions

10-Day Weather Forecast

Almanac

Astronomy

Aug. 30, 2014 Rise Set
Actual Time 7:27 AM AKDT 9:41 PM AKDT
Civil Twilight 6:42 AM AKDT 10:25 PM AKDT
Nautical Twilight 5:44 AM AKDT 11:22 PM AKDT
Astronomical Twilight 4:29 AM AKDT 12:35 AM AKDT
Moon 1:45 PM AKDT 11:00 PM AKDT
Length of Visible Light 15h 42m
Length of Day
14h 14m
Tomorrow will be 5m 12s shorter.
Waxing Crescent, 20% of the Moon is Illuminated
Today
Waxing Crescent
Sep 2
First Quarter
Sep 8
Full
Sep 15
Last Quarter
Sep 24
New

Community

WunderPhotos

Upload Photos

1,748,472 photos uploaded!

Nearby

Snow Depth

Station Depth Elevation
Port Graham 0 in 300 ft
Mcneil Canyon 1 in 1320 ft
MF Bradley River 2 in 2300 ft
Nuka Glacier 26 in 1250 ft
Cooper Lake 18 in 1200 ft

Earthquake Activity

City Distance Mag. Time & Date
No recent earthquake activity has been reported nearby.
Minimum magnitude displayed is 2.5.

Coastal Water Temperatures

Place Temperature
No Stations Reporting

Nearby Weather Stations